sensor_id;sensor_type;location;lat;lon;timestamp;P1;durP1;ratioP1;P2;durP2;ratioP2
31526;SDS011;18136;42.236;-73.040;2023-08-06T00:02:07;14.05;;;12.20;;
31526;SDS011;18136;42.236;-73.040;2023-08-06T00:04:33;13.93;;;12.18;;
31526;SDS011;18136;42.236;-73.040;2023-08-06T00:06:59;13.95;;;12.38;;
31526;SDS011;18136;42.236;-73.040;2023-08-06T00:09:25;15.25;;;13.05;;
31526;SDS011;18136;42.236;-73.040;2023-08-06T00:11:52;15.05;;;13.55;;
31526;SDS011;18136;42.236;-73.040;2023-08-06T00:14:18;13.75;;;12.35;;
31526;SDS011;18136;42.236;-73.040;2023-08-06T00:16:45;16.48;;;13.25;;
31526;SDS011;18136;42.236;-73.040;2023-08-06T00:19:11;15.20;;;12.25;;
31526;SDS011;18136;42.236;-73.040;2023-08-06T00:21:38;15.15;;;13.13;;
31526;SDS011;18136;42.236;-73.040;2023-08-06T00:24:04;17.30;;;13.88;;
31526;SDS011;18136;42.236;-73.040;2023-08-06T00:26:31;14.25;;;12.77;;
31526;SDS011;18136;42.236;-73.040;2023-08-06T00:28:57;14.60;;;13.20;;
31526;SDS011;18136;42.236;-73.040;2023-08-06T00:31:24;16.30;;;13.20;;
31526;SDS011;18136;42.236;-73.040;2023-08-06T00:33:50;15.10;;;12.27;;
31526;SDS011;18136;42.236;-73.040;2023-08-06T00:36:17;14.45;;;12.95;;
31526;SDS011;18136;42.236;-73.040;2023-08-06T00:38:43;15.55;;;13.65;;
31526;SDS011;18136;42.236;-73.040;2023-08-06T00:41:09;14.38;;;12.93;;
31526;SDS011;18136;42.236;-73.040;2023-08-06T00:43:35;13.80;;;12.40;;
31526;SDS011;18136;42.236;-73.040;2023-08-06T00:46:01;13.88;;;12.40;;
31526;SDS011;18136;42.236;-73.040;2023-08-06T00:48:27;14.77;;;13.27;;
31526;SDS011;18136;42.236;-73.040;2023-08-06T00:50:53;14.13;;;12.68;;
31526;SDS011;18136;42.236;-73.040;2023-08-06T00:53:19;15.23;;;13.82;;
31526;SDS011;18136;42.236;-73.040;2023-08-06T00:55:45;15.35;;;13.27;;
31526;SDS011;18136;42.236;-73.040;2023-08-06T00:58:12;15.40;;;13.90;;
31526;SDS011;18136;42.236;-73.040;2023-08-06T01:00:40;16.42;;;13.65;;
31526;SDS011;18136;42.236;-73.040;2023-08-06T01:03:07;18.23;;;13.80;;
31526;SDS011;18136;42.236;-73.040;2023-08-06T01:05:34;15.65;;;14.05;;
31526;SDS011;18136;42.236;-73.040;2023-08-06T01:08:18;14.73;;;13.30;;
31526;SDS011;18136;42.236;-73.040;2023-08-06T01:11:26;15.00;;;13.50;;
31526;SDS011;18136;42.236;-73.040;2023-08-06T01:16:50;14.95;;;13.48;;
31526;SDS011;18136;42.236;-73.040;2023-08-06T01:19:17;14.13;;;12.68;;
31526;SDS011;18136;42.236;-73.040;2023-08-06T01:21:44;14.52;;;13.13;;
31526;SDS011;18136;42.236;-73.040;2023-08-06T01:24:10;16.63;;;14.93;;
31526;SDS011;18136;42.236;-73.040;2023-08-06T01:26:38;14.90;;;13.50;;
31526;SDS011;18136;42.236;-73.040;2023-08-06T01:29:34;15.98;;;13.95;;
31526;SDS011;18136;42.236;-73.040;2023-08-06T01:32:08;15.20;;;13.70;;
31526;SDS011;18136;42.236;-73.040;2023-08-06T01:34:37;15.05;;;13.52;;
31526;SDS011;18136;42.236;-73.040;2023-08-06T01:37:06;14.98;;;13.48;;
31526;SDS011;18136;42.236;-73.040;2023-08-06T01:39:33;16.60;;;14.25;;
31526;SDS011;18136;42.236;-73.040;2023-08-06T01:42:01;15.70;;;14.10;;
31526;SDS011;18136;42.236;-73.040;2023-08-06T01:44:27;18.25;;;14.77;;
31526;SDS011;18136;42.236;-73.040;2023-08-06T01:46:53;18.25;;;13.95;;
31526;SDS011;18136;42.236;-73.040;2023-08-06T01:49:19;15.50;;;13.90;;
31526;SDS011;18136;42.236;-73.040;2023-08-06T01:51:45;17.08;;;14.90;;
31526;SDS011;18136;42.236;-73.040;2023-08-06T01:54:11;16.23;;;14.52;;
31526;SDS011;18136;42.236;-73.040;2023-08-06T01:56:38;17.23;;;15.35;;
31526;SDS011;18136;42.236;-73.040;2023-08-06T01:59:04;21.00;;;15.02;;
31526;SDS011;18136;42.236;-73.040;2023-08-06T02:01:30;17.20;;;14.48;;
31526;SDS011;18136;42.236;-73.040;2023-08-06T02:03:56;14.75;;;13.25;;
31526;SDS011;18136;42.236;-73.040;2023-08-06T02:06:22;15.77;;;13.93;;
31526;SDS011;18136;42.236;-73.040;2023-08-06T02:08:48;15.40;;;13.77;;
31526;SDS011;18136;42.236;-73.040;2023-08-06T02:11:14;15.80;;;13.82;;
31526;SDS011;18136;42.236;-73.040;2023-08-06T02:13:40;16.88;;;14.82;;
31526;SDS011;18136;42.236;-73.040;2023-08-06T02:16:09;16.63;;;14.93;;
31526;SDS011;18136;42.236;-73.040;2023-08-06T02:18:35;15.13;;;13.60;;
31526;SDS011;18136;42.236;-73.040;2023-08-06T02:21:01;18.30;;;14.70;;
31526;SDS011;18136;42.236;-73.040;2023-08-06T02:23:27;16.48;;;14.77;;
31526;SDS011;18136;42.236;-73.040;2023-08-06T02:25:57;16.33;;;14.45;;
31526;SDS011;18136;42.236;-73.040;2023-08-06T02:28:27;17.48;;;14.30;;
31526;SDS011;18136;42.236;-73.040;2023-08-06T02:30:54;17.98;;;14.75;;
31526;SDS011;18136;42.236;-73.040;2023-08-06T02:33:20;15.30;;;13.70;;
31526;SDS011;18136;42.236;-73.040;2023-08-06T02:35:46;16.77;;;14.73;;
31526;SDS011;18136;42.236;-73.040;2023-08-06T02:38:13;15.05;;;13.55;;
31526;SDS011;18136;42.236;-73.040;2023-08-06T02:40:45;15.95;;;14.25;;
31526;SDS011;18136;42.236;-73.040;2023-08-06T02:43:12;15.68;;;13.98;;
31526;SDS011;18136;42.236;-73.040;2023-08-06T02:45:38;16.80;;;15.10;;
31526;SDS011;18136;42.236;-73.040;2023-08-06T02:48:04;16.77;;;14.77;;
31526;SDS011;18136;42.236;-73.040;2023-08-06T02:50:31;15.93;;;14.32;;
31526;SDS011;18136;42.236;-73.040;2023-08-06T02:53:02;15.93;;;14.43;;
31526;SDS011;18136;42.236;-73.040;2023-08-06T02:55:28;16.90;;;14.85;;
31526;SDS011;18136;42.236;-73.040;2023-08-06T02:57:54;20.02;;;15.35;;
31526;SDS011;18136;42.236;-73.040;2023-08-06T03:00:20;16.75;;;14.95;;
31526;SDS011;18136;42.236;-73.040;2023-08-06T03:02:47;17.38;;;14.63;;
31526;SDS011;18136;42.236;-73.040;2023-08-06T03:05:13;17.52;;;14.68;;
31526;SDS011;18136;42.236;-73.040;2023-08-06T03:07:39;18.40;;;16.40;;
31526;SDS011;18136;42.236;-73.040;2023-08-06T03:10:05;15.93;;;14.32;;
31526;SDS011;18136;42.236;-73.040;2023-08-06T03:12:32;15.85;;;14.23;;
31526;SDS011;18136;42.236;-73.040;2023-08-06T03:14:58;16.92;;;15.13;;
31526;SDS011;18136;42.236;-73.040;2023-08-06T03:17:24;17.75;;;15.73;;
31526;SDS011;18136;42.236;-73.040;2023-08-06T03:19:50;17.20;;;15.35;;
31526;SDS011;18136;42.236;-73.040;2023-08-06T03:22:16;18.42;;;16.58;;
31526;SDS011;18136;42.236;-73.040;2023-08-06T03:24:42;17.77;;;15.88;;
31526;SDS011;18136;42.236;-73.040;2023-08-06T03:27:08;20.23;;;16.23;;
31526;SDS011;18136;42.236;-73.040;2023-08-06T03:29:34;16.65;;;14.88;;
31526;SDS011;18136;42.236;-73.040;2023-08-06T03:32:03;18.05;;;16.02;;
31526;SDS011;18136;42.236;-73.040;2023-08-06T03:34:30;18.95;;;16.13;;
31526;SDS011;18136;42.236;-73.040;2023-08-06T03:36:56;19.10;;;16.40;;
31526;SDS011;18136;42.236;-73.040;2023-08-06T03:39:22;18.58;;;16.67;;
31526;SDS011;18136;42.236;-73.040;2023-08-06T03:41:48;18.42;;;16.48;;
31526;SDS011;18136;42.236;-73.040;2023-08-06T03:44:14;17.35;;;15.55;;
31526;SDS011;18136;42.236;-73.040;2023-08-06T03:46:40;16.30;;;14.70;;
31526;SDS011;18136;42.236;-73.040;2023-08-06T03:49:06;17.10;;;15.40;;
31526;SDS011;18136;42.236;-73.040;2023-08-06T03:51:32;18.77;;;15.80;;
31526;SDS011;18136;42.236;-73.040;2023-08-06T03:53:58;17.88;;;16.05;;
31526;SDS011;18136;42.236;-73.040;2023-08-06T03:56:25;18.77;;;16.85;;
31526;SDS011;18136;42.236;-73.040;2023-08-06T03:58:51;18.27;;;16.38;;
31526;SDS011;18136;42.236;-73.040;2023-08-06T04:01:17;17.60;;;15.93;;
31526;SDS011;18136;42.236;-73.040;2023-08-06T04:03:44;19.60;;;17.60;;
31526;SDS011;18136;42.236;-73.040;2023-08-06T04:06:10;22.25;;;18.27;;
31526;SDS011;18136;42.236;-73.040;2023-08-06T04:08:36;23.20;;;16.98;;
31526;SDS011;18136;42.236;-73.040;2023-08-06T04:11:02;17.80;;;15.38;;
31526;SDS011;18136;42.236;-73.040;2023-08-06T04:13:28;19.92;;;17.77;;
31526;SDS011;18136;42.236;-73.040;2023-08-06T04:15:55;20.40;;;17.55;;
31526;SDS011;18136;42.236;-73.040;2023-08-06T04:18:26;19.00;;;16.95;;
31526;SDS011;18136;42.236;-73.040;2023-08-06T04:20:52;19.25;;;17.00;;
31526;SDS011;18136;42.236;-73.040;2023-08-06T04:23:21;19.65;;;17.55;;
31526;SDS011;18136;42.236;-73.040;2023-08-06T04:25:47;19.30;;;16.73;;
31526;SDS011;18136;42.236;-73.040;2023-08-06T04:28:13;21.67;;;17.73;;
31526;SDS011;18136;42.236;-73.040;2023-08-06T04:30:40;22.38;;;17.67;;
31526;SDS011;18136;42.236;-73.040;2023-08-06T04:33:06;17.95;;;16.10;;
31526;SDS011;18136;42.236;-73.040;2023-08-06T04:35:32;19.77;;;17.70;;
31526;SDS011;18136;42.236;-73.040;2023-08-06T04:37:58;20.00;;;17.90;;
31526;SDS011;18136;42.236;-73.040;2023-08-06T04:40:24;20.90;;;18.77;;
31526;SDS011;18136;42.236;-73.040;2023-08-06T04:42:50;19.95;;;17.08;;
31526;SDS011;18136;42.236;-73.040;2023-08-06T04:45:17;19.42;;;17.48;;
31526;SDS011;18136;42.236;-73.040;2023-08-06T04:47:43;20.92;;;18.73;;
31526;SDS011;18136;42.236;-73.040;2023-08-06T04:50:09;21.23;;;18.90;;
31526;SDS011;18136;42.236;-73.040;2023-08-06T04:52:35;20.50;;;18.30;;
31526;SDS011;18136;42.236;-73.040;2023-08-06T04:55:02;19.80;;;17.70;;
31526;SDS011;18136;42.236;-73.040;2023-08-06T04:57:30;20.58;;;18.50;;
31526;SDS011;18136;42.236;-73.040;2023-08-06T04:59:57;21.35;;;18.33;;
31526;SDS011;18136;42.236;-73.040;2023-08-06T05:02:23;20.88;;;18.55;;
31526;SDS011;18136;42.236;-73.040;2023-08-06T05:04:49;21.77;;;18.98;;
31526;SDS011;18136;42.236;-73.040;2023-08-06T05:07:15;19.33;;;17.33;;
31526;SDS011;18136;42.236;-73.040;2023-08-06T05:09:41;20.77;;;18.60;;
31526;SDS011;18136;42.236;-73.040;2023-08-06T05:12:07;19.08;;;17.08;;
31526;SDS011;18136;42.236;-73.040;2023-08-06T05:14:34;21.10;;;18.77;;
31526;SDS011;18136;42.236;-73.040;2023-08-06T05:17:00;19.40;;;17.35;;
31526;SDS011;18136;42.236;-73.040;2023-08-06T05:19:28;20.35;;;18.20;;
31526;SDS011;18136;42.236;-73.040;2023-08-06T05:21:54;20.17;;;18.08;;
31526;SDS011;18136;42.236;-73.040;2023-08-06T05:24:20;19.13;;;17.15;;
31526;SDS011;18136;42.236;-73.040;2023-08-06T05:26:46;19.50;;;17.45;;
31526;SDS011;18136;42.236;-73.040;2023-08-06T05:29:13;19.95;;;17.90;;
31526;SDS011;18136;42.236;-73.040;2023-08-06T05:31:39;19.60;;;17.60;;
31526;SDS011;18136;42.236;-73.040;2023-08-06T05:34:05;23.20;;;18.35;;
31526;SDS011;18136;42.236;-73.040;2023-08-06T05:36:32;20.35;;;18.27;;
31526;SDS011;18136;42.236;-73.040;2023-08-06T05:38:58;20.30;;;18.00;;
31526;SDS011;18136;42.236;-73.040;2023-08-06T05:41:25;20.52;;;18.30;;
31526;SDS011;18136;42.236;-73.040;2023-08-06T05:43:51;20.05;;;18.05;;
31526;SDS011;18136;42.236;-73.040;2023-08-06T05:46:17;19.85;;;17.75;;
31526;SDS011;18136;42.236;-73.040;2023-08-06T05:48:43;21.25;;;17.70;;
31526;SDS011;18136;42.236;-73.040;2023-08-06T05:51:09;20.17;;;17.95;;
31526;SDS011;18136;42.236;-73.040;2023-08-06T05:53:37;20.02;;;18.05;;
31526;SDS011;18136;42.236;-73.040;2023-08-06T05:56:04;19.30;;;17.30;;
31526;SDS011;18136;42.236;-73.040;2023-08-06T05:58:30;21.05;;;18.20;;
31526;SDS011;18136;42.236;-73.040;2023-08-06T06:00:56;20.50;;;18.40;;
31526;SDS011;18136;42.236;-73.040;2023-08-06T06:03:22;19.13;;;17.13;;
31526;SDS011;18136;42.236;-73.040;2023-08-06T06:05:48;20.92;;;18.75;;
31526;SDS011;18136;42.236;-73.040;2023-08-06T06:08:14;19.95;;;17.80;;
31526;SDS011;18136;42.236;-73.040;2023-08-06T06:10:41;19.05;;;17.08;;
31526;SDS011;18136;42.236;-73.040;2023-08-06T06:13:07;20.73;;;18.55;;
31526;SDS011;18136;42.236;-73.040;2023-08-06T06:15:33;19.52;;;17.52;;
31526;SDS011;18136;42.236;-73.040;2023-08-06T06:17:59;20.40;;;18.17;;
31526;SDS011;18136;42.236;-73.040;2023-08-06T06:20:25;19.27;;;17.27;;
31526;SDS011;18136;42.236;-73.040;2023-08-06T06:22:51;19.13;;;17.23;;
31526;SDS011;18136;42.236;-73.040;2023-08-06T06:25:17;20.90;;;18.55;;
31526;SDS011;18136;42.236;-73.040;2023-08-06T06:27:43;21.33;;;18.63;;
31526;SDS011;18136;42.236;-73.040;2023-08-06T06:30:10;20.92;;;18.73;;
31526;SDS011;18136;42.236;-73.040;2023-08-06T06:32:37;21.50;;;19.35;;
31526;SDS011;18136;42.236;-73.040;2023-08-06T06:35:05;19.88;;;17.75;;
31526;SDS011;18136;42.236;-73.040;2023-08-06T06:37:31;23.73;;;18.10;;
31526;SDS011;18136;42.236;-73.040;2023-08-06T06:39:58;22.75;;;19.52;;
31526;SDS011;18136;42.236;-73.040;2023-08-06T06:42:24;20.35;;;18.25;;
31526;SDS011;18136;42.236;-73.040;2023-08-06T06:44:50;20.27;;;18.00;;
31526;SDS011;18136;42.236;-73.040;2023-08-06T06:47:16;20.65;;;18.52;;
31526;SDS011;18136;42.236;-73.040;2023-08-06T06:49:42;23.02;;;17.48;;
31526;SDS011;18136;42.236;-73.040;2023-08-06T06:52:08;19.25;;;17.35;;
31526;SDS011;18136;42.236;-73.040;2023-08-06T06:54:34;20.83;;;18.83;;
31526;SDS011;18136;42.236;-73.040;2023-08-06T06:57:00;20.00;;;17.13;;
31526;SDS011;18136;42.236;-73.040;2023-08-06T06:59:26;20.48;;;18.38;;
31526;SDS011;18136;42.236;-73.040;2023-08-06T07:01:52;19.13;;;17.23;;
31526;SDS011;18136;42.236;-73.040;2023-08-06T07:04:18;19.00;;;17.00;;
31526;SDS011;18136;42.236;-73.040;2023-08-06T07:06:44;20.17;;;18.08;;
31526;SDS011;18136;42.236;-73.040;2023-08-06T07:09:10;21.10;;;18.10;;
31526;SDS011;18136;42.236;-73.040;2023-08-06T07:11:37;19.02;;;17.02;;
31526;SDS011;18136;42.236;-73.040;2023-08-06T07:14:03;20.10;;;17.98;;
31526;SDS011;18136;42.236;-73.040;2023-08-06T07:16:29;20.88;;;18.65;;
31526;SDS011;18136;42.236;-73.040;2023-08-06T07:18:55;18.77;;;16.85;;
31526;SDS011;18136;42.236;-73.040;2023-08-06T07:21:21;19.60;;;17.45;;
31526;SDS011;18136;42.236;-73.040;2023-08-06T07:23:47;19.67;;;17.02;;
31526;SDS011;18136;42.236;-73.040;2023-08-06T07:26:15;22.58;;;18.13;;
31526;SDS011;18136;42.236;-73.040;2023-08-06T07:28:41;19.15;;;17.25;;
31526;SDS011;18136;42.236;-73.040;2023-08-06T07:31:07;19.58;;;17.58;;
31526;SDS011;18136;42.236;-73.040;2023-08-06T07:33:33;18.88;;;16.88;;
31526;SDS011;18136;42.236;-73.040;2023-08-06T07:35:59;20.73;;;18.20;;
31526;SDS011;18136;42.236;-73.040;2023-08-06T07:38:32;18.38;;;16.45;;
31526;SDS011;18136;42.236;-73.040;2023-08-06T07:41:01;19.42;;;17.42;;
31526;SDS011;18136;42.236;-73.040;2023-08-06T07:43:27;18.27;;;16.25;;
31526;SDS011;18136;42.236;-73.040;2023-08-06T07:45:53;20.88;;;16.73;;
31526;SDS011;18136;42.236;-73.040;2023-08-06T07:48:22;22.50;;;17.17;;
31526;SDS011;18136;42.236;-73.040;2023-08-06T07:50:51;18.70;;;16.00;;
31526;SDS011;18136;42.236;-73.040;2023-08-06T07:53:21;18.13;;;16.20;;
31526;SDS011;18136;42.236;-73.040;2023-08-06T07:55:49;18.13;;;16.00;;
31526;SDS011;18136;42.236;-73.040;2023-08-06T07:58:16;18.38;;;16.10;;
31526;SDS011;18136;42.236;-73.040;2023-08-06T08:00:42;16.83;;;14.70;;
31526;SDS011;18136;42.236;-73.040;2023-08-06T08:03:11;17.65;;;15.40;;
31526;SDS011;18136;42.236;-73.040;2023-08-06T08:05:41;15.93;;;14.32;;
31526;SDS011;18136;42.236;-73.040;2023-08-06T08:08:08;17.13;;;15.32;;
31526;SDS011;18136;42.236;-73.040;2023-08-06T08:10:34;15.02;;;13.35;;
31526;SDS011;18136;42.236;-73.040;2023-08-06T08:13:04;15.77;;;14.15;;
31526;SDS011;18136;42.236;-73.040;2023-08-06T08:15:31;16.80;;;14.05;;
31526;SDS011;18136;42.236;-73.040;2023-08-06T08:17:58;16.02;;;13.70;;
31526;SDS011;18136;42.236;-73.040;2023-08-06T08:20:24;13.27;;;11.88;;
31526;SDS011;18136;42.236;-73.040;2023-08-06T08:22:56;14.98;;;13.48;;
31526;SDS011;18136;42.236;-73.040;2023-08-06T08:25:23;16.70;;;12.27;;
31526;SDS011;18136;42.236;-73.040;2023-08-06T08:27:50;14.25;;;12.85;;
31526;SDS011;18136;42.236;-73.040;2023-08-06T08:30:16;14.40;;;12.85;;
31526;SDS011;18136;42.236;-73.040;2023-08-06T08:32:42;13.38;;;11.98;;
31526;SDS011;18136;42.236;-73.040;2023-08-06T08:35:08;14.50;;;12.38;;
31526;SDS011;18136;42.236;-73.040;2023-08-06T08:37:34;14.20;;;12.27;;
31526;SDS011;18136;42.236;-73.040;2023-08-06T08:40:01;13.73;;;12.30;;
31526;SDS011;18136;42.236;-73.040;2023-08-06T08:42:28;13.13;;;11.82;;
31526;SDS011;18136;42.236;-73.040;2023-08-06T08:44:54;12.52;;;11.25;;
31526;SDS011;18136;42.236;-73.040;2023-08-06T08:47:22;13.07;;;11.73;;
31526;SDS011;18136;42.236;-73.040;2023-08-06T08:49:49;13.40;;;12.02;;
31526;SDS011;18136;42.236;-73.040;2023-08-06T08:52:20;12.07;;;10.88;;
31526;SDS011;18136;42.236;-73.040;2023-08-06T08:54:48;14.15;;;12.00;;
31526;SDS011;18136;42.236;-73.040;2023-08-06T08:57:18;12.38;;;11.18;;
31526;SDS011;18136;42.236;-73.040;2023-08-06T08:59:45;11.90;;;10.70;;
31526;SDS011;18136;42.236;-73.040;2023-08-06T09:02:12;10.52;;;9.43;;
31526;SDS011;18136;42.236;-73.040;2023-08-06T09:04:40;11.95;;;9.70;;
31526;SDS011;18136;42.236;-73.040;2023-08-06T09:07:08;12.80;;;10.73;;
31526;SDS011;18136;42.236;-73.040;2023-08-06T09:09:38;11.57;;;9.90;;
31526;SDS011;18136;42.236;-73.040;2023-08-06T09:12:14;11.93;;;10.73;;
31526;SDS011;18136;42.236;-73.040;2023-08-06T09:14:41;13.20;;;11.02;;
31526;SDS011;18136;42.236;-73.040;2023-08-06T09:17:09;11.15;;;10.05;;
31526;SDS011;18136;42.236;-73.040;2023-08-06T09:19:36;12.00;;;10.63;;
31526;SDS011;18136;42.236;-73.040;2023-08-06T09:22:02;13.90;;;10.57;;
31526;SDS011;18136;42.236;-73.040;2023-08-06T09:24:28;10.82;;;9.73;;
31526;SDS011;18136;42.236;-73.040;2023-08-06T09:26:55;11.20;;;10.05;;
31526;SDS011;18136;42.236;-73.040;2023-08-06T09:29:21;11.18;;;10.07;;
31526;SDS011;18136;42.236;-73.040;2023-08-06T09:31:48;10.88;;;9.52;;
31526;SDS011;18136;42.236;-73.040;2023-08-06T09:34:18;11.15;;;9.75;;
31526;SDS011;18136;42.236;-73.040;2023-08-06T09:36:52;11.43;;;9.82;;
31526;SDS011;18136;42.236;-73.040;2023-08-06T09:39:25;10.20;;;9.25;;
31526;SDS011;18136;42.236;-73.040;2023-08-06T09:41:56;10.75;;;9.75;;
31526;SDS011;18136;42.236;-73.040;2023-08-06T09:44:24;11.60;;;10.40;;
31526;SDS011;18136;42.236;-73.040;2023-08-06T09:46:52;10.50;;;9.50;;
31526;SDS011;18136;42.236;-73.040;2023-08-06T09:49:42;10.35;;;9.25;;
31526;SDS011;18136;42.236;-73.040;2023-08-06T09:52:14;10.25;;;9.25;;
31526;SDS011;18136;42.236;-73.040;2023-08-06T09:54:43;9.70;;;8.70;;
31526;SDS011;18136;42.236;-73.040;2023-08-06T09:57:10;11.05;;;9.88;;
31526;SDS011;18136;42.236;-73.040;2023-08-06T09:59:45;11.38;;;10.18;;
31526;SDS011;18136;42.236;-73.040;2023-08-06T10:02:13;11.02;;;9.63;;
31526;SDS011;18136;42.236;-73.040;2023-08-06T10:04:39;9.90;;;8.90;;
31526;SDS011;18136;42.236;-73.040;2023-08-06T10:07:07;10.40;;;9.32;;
31526;SDS011;18136;42.236;-73.040;2023-08-06T10:09:34;14.52;;;9.30;;
31526;SDS011;18136;42.236;-73.040;2023-08-06T10:12:00;9.88;;;8.88;;
31526;SDS011;18136;42.236;-73.040;2023-08-06T10:14:28;8.70;;;7.90;;
31526;SDS011;18136;42.236;-73.040;2023-08-06T10:16:58;10.93;;;9.02;;
31526;SDS011;18136;42.236;-73.040;2023-08-06T10:19:25;10.18;;;8.80;;
31526;SDS011;18136;42.236;-73.040;2023-08-06T10:22:08;11.73;;;8.73;;
31526;SDS011;18136;42.236;-73.040;2023-08-06T10:27:20;9.30;;;8.40;;
31526;SDS011;18136;42.236;-73.040;2023-08-06T10:29:47;9.40;;;8.50;;
31526;SDS011;18136;42.236;-73.040;2023-08-06T10:32:17;10.10;;;8.43;;
31526;SDS011;18136;42.236;-73.040;2023-08-06T10:34:53;9.90;;;8.93;;
31526;SDS011;18136;42.236;-73.040;2023-08-06T10:37:34;10.73;;;9.18;;
31526;SDS011;18136;42.236;-73.040;2023-08-06T10:40:01;10.82;;;9.65;;
31526;SDS011;18136;42.236;-73.040;2023-08-06T10:42:29;9.85;;;8.15;;
31526;SDS011;18136;42.236;-73.040;2023-08-06T10:45:29;10.07;;;8.90;;
31526;SDS011;18136;42.236;-73.040;2023-08-06T10:47:53;9.57;;;8.55;;
31526;SDS011;18136;42.236;-73.040;2023-08-06T10:50:21;10.18;;;8.73;;
31526;SDS011;18136;42.236;-73.040;2023-08-06T10:52:47;9.68;;;8.75;;
31526;SDS011;18136;42.236;-73.040;2023-08-06T10:55:14;9.38;;;8.48;;
31526;SDS011;18136;42.236;-73.040;2023-08-06T10:57:47;9.75;;;8.63;;
31526;SDS011;18136;42.236;-73.040;2023-08-06T11:00:13;10.05;;;8.65;;
31526;SDS011;18136;42.236;-73.040;2023-08-06T11:02:41;9.90;;;8.90;;
31526;SDS011;18136;42.236;-73.040;2023-08-06T11:05:08;9.57;;;8.50;;
31526;SDS011;18136;42.236;-73.040;2023-08-06T11:07:35;8.40;;;7.63;;
31526;SDS011;18136;42.236;-73.040;2023-08-06T11:10:03;8.93;;;8.13;;
31526;SDS011;18136;42.236;-73.040;2023-08-06T11:12:31;8.85;;;7.90;;
31526;SDS011;18136;42.236;-73.040;2023-08-06T11:14:57;9.57;;;8.50;;
31526;SDS011;18136;42.236;-73.040;2023-08-06T11:17:24;10.35;;;8.63;;
31526;SDS011;18136;42.236;-73.040;2023-08-06T11:19:52;8.77;;;7.88;;
31526;SDS011;18136;42.236;-73.040;2023-08-06T11:22:20;10.70;;;8.65;;
31526;SDS011;18136;42.236;-73.040;2023-08-06T11:24:47;8.80;;;7.90;;
31526;SDS011;18136;42.236;-73.040;2023-08-06T11:27:16;9.68;;;8.30;;
31526;SDS011;18136;42.236;-73.040;2023-08-06T11:29:43;11.30;;;9.02;;
31526;SDS011;18136;42.236;-73.040;2023-08-06T11:32:10;11.45;;;8.82;;
31526;SDS011;18136;42.236;-73.040;2023-08-06T11:34:37;9.27;;;7.97;;
31526;SDS011;18136;42.236;-73.040;2023-08-06T11:37:04;9.73;;;8.80;;
31526;SDS011;18136;42.236;-73.040;2023-08-06T11:39:34;9.18;;;8.27;;
31526;SDS011;18136;42.236;-73.040;2023-08-06T11:42:04;9.32;;;8.35;;
31526;SDS011;18136;42.236;-73.040;2023-08-06T11:44:36;9.15;;;8.25;;
31526;SDS011;18136;42.236;-73.040;2023-08-06T11:47:03;8.63;;;7.75;;
31526;SDS011;18136;42.236;-73.040;2023-08-06T11:52:22;9.68;;;8.05;;
31526;SDS011;18136;42.236;-73.040;2023-08-06T11:55:00;7.65;;;6.95;;
31526;SDS011;18136;42.236;-73.040;2023-08-06T11:57:32;10.10;;;8.05;;
31526;SDS011;18136;42.236;-73.040;2023-08-06T12:00:10;7.95;;;7.15;;
31526;SDS011;18136;42.236;-73.040;2023-08-06T12:02:39;8.90;;;6.40;;
31526;SDS011;18136;42.236;-73.040;2023-08-06T12:05:13;7.47;;;6.78;;
31526;SDS011;18136;42.236;-73.040;2023-08-06T12:07:41;7.65;;;6.72;;
31526;SDS011;18136;42.236;-73.040;2023-08-06T12:10:08;7.80;;;6.60;;
31526;SDS011;18136;42.236;-73.040;2023-08-06T12:12:34;7.53;;;6.72;;
31526;SDS011;18136;42.236;-73.040;2023-08-06T12:15:01;7.72;;;6.93;;
31526;SDS011;18136;42.236;-73.040;2023-08-06T12:17:27;7.47;;;6.65;;
31526;SDS011;18136;42.236;-73.040;2023-08-06T12:19:53;7.68;;;6.63;;
31526;SDS011;18136;42.236;-73.040;2023-08-06T12:22:19;6.40;;;5.80;;
31526;SDS011;18136;42.236;-73.040;2023-08-06T12:24:46;7.10;;;6.50;;
31526;SDS011;18136;42.236;-73.040;2023-08-06T12:27:15;7.10;;;6.40;;
31526;SDS011;18136;42.236;-73.040;2023-08-06T12:29:42;7.05;;;6.35;;
31526;SDS011;18136;42.236;-73.040;2023-08-06T12:32:09;6.20;;;5.60;;
31526;SDS011;18136;42.236;-73.040;2023-08-06T12:34:37;7.72;;;6.72;;
31526;SDS011;18136;42.236;-73.040;2023-08-06T12:37:05;5.97;;;5.38;;
31526;SDS011;18136;42.236;-73.040;2023-08-06T12:39:32;6.50;;;5.90;;
31526;SDS011;18136;42.236;-73.040;2023-08-06T12:41:59;6.35;;;5.75;;
31526;SDS011;18136;42.236;-73.040;2023-08-06T12:44:29;5.72;;;5.22;;
31526;SDS011;18136;42.236;-73.040;2023-08-06T12:46:55;6.13;;;5.53;;
31526;SDS011;18136;42.236;-73.040;2023-08-06T12:49:21;6.10;;;5.43;;
31526;SDS011;18136;42.236;-73.040;2023-08-06T12:51:48;6.20;;;5.60;;
31526;SDS011;18136;42.236;-73.040;2023-08-06T12:54:19;6.35;;;5.75;;
31526;SDS011;18136;42.236;-73.040;2023-08-06T12:56:46;6.07;;;5.47;;
31526;SDS011;18136;42.236;-73.040;2023-08-06T12:59:16;5.95;;;5.40;;
31526;SDS011;18136;42.236;-73.040;2023-08-06T13:01:42;5.95;;;5.43;;
31526;SDS011;18136;42.236;-73.040;2023-08-06T13:04:09;8.90;;;5.93;;
31526;SDS011;18136;42.236;-73.040;2023-08-06T13:06:36;6.10;;;5.50;;
31526;SDS011;18136;42.236;-73.040;2023-08-06T13:09:05;5.50;;;5.00;;
31526;SDS011;18136;42.236;-73.040;2023-08-06T13:11:35;6.20;;;5.60;;
31526;SDS011;18136;42.236;-73.040;2023-08-06T13:14:04;7.00;;;6.32;;
31526;SDS011;18136;42.236;-73.040;2023-08-06T13:16:35;6.20;;;5.60;;
31526;SDS011;18136;42.236;-73.040;2023-08-06T13:19:03;6.78;;;6.07;;
31526;SDS011;18136;42.236;-73.040;2023-08-06T13:21:35;6.63;;;5.57;;
31526;SDS011;18136;42.236;-73.040;2023-08-06T13:24:07;6.75;;;6.03;;
31526;SDS011;18136;42.236;-73.040;2023-08-06T13:26:34;6.90;;;6.07;;
31526;SDS011;18136;42.236;-73.040;2023-08-06T13:29:02;7.47;;;5.78;;
31526;SDS011;18136;42.236;-73.040;2023-08-06T13:31:28;5.53;;;5.05;;
31526;SDS011;18136;42.236;-73.040;2023-08-06T13:33:55;5.70;;;5.20;;
31526;SDS011;18136;42.236;-73.040;2023-08-06T13:36:23;7.70;;;5.53;;
31526;SDS011;18136;42.236;-73.040;2023-08-06T13:38:50;6.10;;;5.50;;
31526;SDS011;18136;42.236;-73.040;2023-08-06T13:41:16;6.03;;;5.45;;
31526;SDS011;18136;42.236;-73.040;2023-08-06T13:43:42;6.05;;;5.47;;
31526;SDS011;18136;42.236;-73.040;2023-08-06T13:46:10;7.00;;;5.93;;
31526;SDS011;18136;42.236;-73.040;2023-08-06T13:48:43;7.13;;;6.35;;
31526;SDS011;18136;42.236;-73.040;2023-08-06T13:51:10;6.20;;;5.60;;
31526;SDS011;18136;42.236;-73.040;2023-08-06T13:53:41;6.22;;;5.35;;
31526;SDS011;18136;42.236;-73.040;2023-08-06T13:56:08;8.27;;;5.40;;
31526;SDS011;18136;42.236;-73.040;2023-08-06T13:58:36;6.68;;;5.85;;
31526;SDS011;18136;42.236;-73.040;2023-08-06T14:01:03;7.55;;;6.85;;
31526;SDS011;18136;42.236;-73.040;2023-08-06T14:03:30;8.00;;;7.20;;
31526;SDS011;18136;42.236;-73.040;2023-08-06T14:05:56;8.57;;;7.78;;
31526;SDS011;18136;42.236;-73.040;2023-08-06T14:08:23;7.90;;;7.10;;
31526;SDS011;18136;42.236;-73.040;2023-08-06T14:10:50;7.80;;;7.03;;
31526;SDS011;18136;42.236;-73.040;2023-08-06T14:13:16;8.55;;;7.75;;
31526;SDS011;18136;42.236;-73.040;2023-08-06T14:15:43;8.73;;;7.85;;